Time;durP1;ratioP1;P1;durP2;ratioP2;P2;SDS_P1;SDS_P2;PMS_P1;PMS_P2;Temp;Humidity;BMP_temperature;BMP_pressure;BME280_temperature;BME280_humidity;BME280_pressure;Samples;Min_cycle;Max_cycle;Signal;HPM_P1;HPM_P2
2023/07/07 00:00:55;;;;;;;4.03;3.05;;;13.00;99.90;;;;;;6125429;23;20026;-71
2023/07/07 00:03:20;;;;;;;5.25;3.50;;;13.00;99.90;;;;;;6127953;23;20028;-71
2023/07/07 00:05:47;;;;;;;4.65;3.83;;;13.10;99.90;;;;;;6101153;23;20018;-71
2023/07/07 00:08:13;;;;;;;4.00;3.03;;;13.00;99.90;;;;;;6102494;23;20065;-71
2023/07/07 00:10:42;;;;;;;3.95;3.55;;;13.00;99.90;;;;;;6126110;23;20460;-71
2023/07/07 00:13:12;;;;;;;4.60;3.40;;;13.10;99.90;;;;;;6100985;23;20018;-69
2023/07/07 00:15:44;;;;;;;3.88;3.40;;;13.00;99.90;;;;;;6126488;23;20022;-71
2023/07/07 00:18:10;;;;;;;5.55;3.63;;;13.00;99.90;;;;;;6124986;23;20021;-70
2023/07/07 00:20:36;;;;;;;7.55;4.50;;;13.00;99.90;;;;;;6126062;23;20028;-71
2023/07/07 00:23:02;;;;;;;6.07;4.43;;;13.00;99.90;;;;;;6100939;23;20022;-71
2023/07/07 00:25:27;;;;;;;5.22;3.90;;;13.00;99.90;;;;;;6126194;23;20046;-70
2023/07/07 00:27:53;;;;;;;7.28;4.85;;;12.90;99.90;;;;;;6101471;23;20022;-71
2023/07/07 00:30:19;;;;;;;5.78;4.43;;;12.90;99.90;;;;;;6125553;23;20078;-71
2023/07/07 00:32:44;;;;;;;5.35;4.53;;;13.00;99.90;;;;;;6125965;23;20022;-71
2023/07/07 00:35:10;;;;;;;6.65;4.88;;;12.90;99.90;;;;;;6124713;23;20029;-71
2023/07/07 00:37:36;;;;;;;6.82;4.53;;;12.90;99.90;;;;;;6101828;23;20026;-71
2023/07/07 00:40:03;;;;;;;6.88;4.68;;;12.90;99.90;;;;;;6126545;23;20026;-71
2023/07/07 00:42:29;;;;;;;5.75;4.53;;;12.90;99.90;;;;;;6103917;23;20404;-71
2023/07/07 00:45:18;;;;;;;5.90;4.85;;;12.90;99.90;;;;;;6127582;23;20022;-71
2023/07/07 00:47:57;;;;;;;8.63;4.72;;;12.80;99.90;;;;;;6126724;23;20029;-71
2023/07/07 00:50:27;;;;;;;7.10;5.00;;;12.80;99.90;;;;;;6129329;23;20022;-71
2023/07/07 00:52:53;;;;;;;6.00;4.60;;;12.80;99.90;;;;;;6127037;23;20026;-71
2023/07/07 00:55:44;;;;;;;5.97;4.78;;;12.80;99.90;;;;;;6129877;23;20052;-71
2023/07/07 00:58:13;;;;;;;5.50;4.53;;;12.80;99.90;;;;;;6103460;23;20022;-71
2023/07/07 01:00:41;;;;;;;5.30;4.80;;;12.80;99.90;;;;;;6127359;23;20248;-71
2023/07/07 01:03:22;;;;;;;5.90;4.65;;;12.80;99.90;;;;;;6129686;23;20078;-71
2023/07/07 01:05:49;;;;;;;5.38;4.70;;;12.80;99.90;;;;;;6126727;23;20018;-71
2023/07/07 01:08:16;;;;;;;5.90;5.30;;;12.70;99.90;;;;;;6128438;23;20092;-71
2023/07/07 01:10:42;;;;;;;6.97;5.60;;;12.70;99.90;;;;;;6103744;23;20025;-71
2023/07/07 01:13:08;;;;;;;7.00;4.65;;;12.70;99.90;;;;;;6127190;23;20356;-71
2023/07/07 01:15:37;;;;;;;6.38;4.82;;;12.70;99.90;;;;;;6129573;23;20032;-71
2023/07/07 01:18:18;;;;;;;8.43;5.57;;;12.70;99.90;;;;;;6126631;23;20082;-71
2023/07/07 01:20:47;;;;;;;5.82;5.03;;;12.70;99.90;;;;;;6127976;23;20400;-71
2023/07/07 01:23:40;;;;;;;7.03;5.20;;;12.60;99.90;;;;;;6128591;23;20033;-71
2023/07/07 01:26:27;;;;;;;5.15;4.65;;;12.70;99.90;;;;;;6128443;23;20025;-71
2023/07/07 01:29:18;;;;;;;5.70;5.10;;;12.70;99.90;;;;;;6127363;23;20347;-71
2023/07/07 01:31:53;;;;;;;5.87;4.87;;;12.70;99.90;;;;;;6126988;23;20017;-71
2023/07/07 01:34:19;;;;;;;7.63;5.55;;;12.60;99.90;;;;;;6127129;23;20044;-71
2023/07/07 01:36:45;;;;;;;6.57;5.15;;;12.60;99.90;;;;;;6078966;23;20030;-71
2023/07/07 01:39:12;;;;;;;8.18;4.97;;;12.60;99.90;;;;;;6102221;23;20028;-71
2023/07/07 01:41:46;;;;;;;5.60;4.82;;;12.60;99.90;;;;;;6103031;23;20029;-71
2023/07/07 01:44:40;;;;;;;7.43;5.50;;;12.50;99.90;;;;;;6102223;23;20028;-72
2023/07/07 01:47:14;;;;;;;8.05;4.93;;;12.50;99.90;;;;;;6129164;23;20081;-71
2023/07/07 01:49:48;;;;;;;5.55;4.97;;;12.50;99.90;;;;;;6078608;23;20029;-71
2023/07/07 01:52:20;;;;;;;6.88;5.65;;;12.50;99.90;;;;;;6127442;23;20064;-72
2023/07/07 01:54:56;;;;;;;8.25;5.20;;;12.50;99.90;;;;;;6103090;23;20483;-71
2023/07/07 01:57:25;;;;;;;7.53;5.55;;;12.50;99.90;;;;;;6128042;23;20037;-71
2023/07/07 01:59:51;;;;;;;6.30;5.35;;;12.50;99.90;;;;;;6102526;23;20073;-72
2023/07/07 02:02:17;;;;;;;8.55;6.30;;;12.50;99.90;;;;;;6078539;23;20026;-71
2023/07/07 02:04:43;;;;;;;7.60;5.53;;;12.40;99.90;;;;;;6128141;23;20049;-71
2023/07/07 02:07:09;;;;;;;7.75;6.80;;;12.40;99.90;;;;;;6102893;23;20338;-71
2023/07/07 02:09:36;;;;;;;10.23;7.03;;;12.40;99.90;;;;;;6101661;23;20308;-71
2023/07/07 02:12:02;;;;;;;7.10;5.78;;;12.40;99.90;;;;;;6055584;23;20401;-72
2023/07/07 02:14:28;;;;;;;6.25;5.65;;;12.50;99.90;;;;;;6078061;23;20061;-71
2023/07/07 02:16:54;;;;;;;6.75;5.35;;;12.50;99.90;;;;;;6102989;23;20029;-71
2023/07/07 02:19:19;;;;;;;6.32;5.65;;;12.50;99.90;;;;;;6078119;23;20503;-69
2023/07/07 02:21:45;;;;;;;8.20;6.20;;;12.50;99.90;;;;;;6054072;23;20071;-71
2023/07/07 02:24:11;;;;;;;8.70;5.72;;;12.50;99.90;;;;;;6078819;23;20360;-71
2023/07/07 02:26:37;;;;;;;8.52;6.30;;;12.50;99.90;;;;;;6101426;23;20021;-71
2023/07/07 02:29:03;;;;;;;6.88;5.85;;;12.50;99.90;;;;;;6102600;23;20512;-71
2023/07/07 02:31:29;;;;;;;7.95;6.05;;;12.40;99.90;;;;;;6127825;23;20033;-72
2023/07/07 02:33:54;;;;;;;10.60;6.80;;;12.40;99.90;;;;;;6129152;23;20041;-72
2023/07/07 02:36:21;;;;;;;8.98;6.90;;;12.40;99.90;;;;;;6098942;23;20097;-71
2023/07/07 02:38:46;;;;;;;9.00;7.05;;;12.40;99.90;;;;;;6126288;23;20093;-71
2023/07/07 02:41:13;;;;;;;9.63;7.28;;;12.40;99.90;;;;;;6128592;23;20022;-71
2023/07/07 02:43:40;;;;;;;9.40;7.15;;;12.40;99.90;;;;;;6101281;23;20017;-71
2023/07/07 02:46:06;;;;;;;11.27;7.80;;;12.30;99.90;;;;;;6127066;23;20069;-71
2023/07/07 02:48:32;;;;;;;9.30;8.00;;;12.30;99.90;;;;;;6127459;23;20018;-71
2023/07/07 02:51:01;;;;;;;12.18;7.75;;;12.30;99.90;;;;;;6126949;23;20078;-71
2023/07/07 02:53:31;;;;;;;9.95;8.65;;;12.30;99.90;;;;;;6101982;23;20021;-71
2023/07/07 02:55:57;;;;;;;11.05;8.13;;;12.30;99.90;;;;;;6125959;23;20017;-71
2023/07/07 02:58:23;;;;;;;12.45;9.15;;;12.30;99.90;;;;;;6128654;23;20114;-71
2023/07/07 03:00:49;;;;;;;9.80;8.48;;;12.30;99.90;;;;;;6127364;23;20014;-71
2023/07/07 03:03:16;;;;;;;13.13;8.90;;;12.30;99.90;;;;;;6102685;23;20093;-71
2023/07/07 03:05:42;;;;;;;12.82;9.38;;;12.30;99.90;;;;;;6125462;23;20448;-71
2023/07/07 03:08:09;;;;;;;10.70;8.52;;;12.30;99.90;;;;;;6102391;23;20018;-72
2023/07/07 03:10:35;;;;;;;10.45;9.00;;;12.30;99.90;;;;;;6126305;23;20018;-71
2023/07/07 03:13:01;;;;;;;16.15;11.40;;;12.30;99.90;;;;;;6127841;23;20064;-72
2023/07/07 03:15:29;;;;;;;10.63;8.80;;;12.40;99.90;;;;;;6102407;23;20022;-71
2023/07/07 03:17:55;;;;;;;12.13;8.45;;;12.50;99.90;;;;;;6100939;23;20298;-71
2023/07/07 03:20:26;;;;;;;10.07;8.80;;;12.40;99.90;;;;;;6126064;23;20025;-72
2023/07/07 03:22:52;;;;;;;9.25;7.63;;;12.40;99.90;;;;;;6125814;23;20097;-72
2023/07/07 03:25:20;;;;;;;10.80;7.53;;;12.30;99.90;;;;;;6102258;23;20030;-70
2023/07/07 03:27:46;;;;;;;9.40;7.75;;;12.30;99.90;;;;;;6124876;23;20537;-71
2023/07/07 03:30:11;;;;;;;10.98;8.85;;;12.30;99.90;;;;;;6125942;23;20026;-71
2023/07/07 03:32:37;;;;;;;11.77;9.13;;;12.30;99.90;;;;;;6126481;23;20021;-72
2023/07/07 03:35:03;;;;;;;13.07;9.55;;;12.30;99.90;;;;;;6100194;23;20022;-71
2023/07/07 03:37:29;;;;;;;12.27;9.70;;;12.20;99.90;;;;;;6101646;23;20092;-71
2023/07/07 03:39:54;;;;;;;14.15;10.30;;;12.20;99.90;;;;;;6101213;23;20514;-71
2023/07/07 03:42:20;;;;;;;12.60;10.43;;;12.20;99.90;;;;;;6078555;23;20076;-71
2023/07/07 03:44:46;;;;;;;13.32;10.48;;;12.30;99.90;;;;;;6101348;23;20041;-72
2023/07/07 03:47:11;;;;;;;16.48;12.50;;;12.30;99.90;;;;;;6101079;23;20050;-71
2023/07/07 03:49:37;;;;;;;15.98;11.73;;;12.40;99.90;;;;;;6126186;23;20022;-71
2023/07/07 03:52:03;;;;;;;14.82;10.90;;;12.60;99.90;;;;;;6100852;23;20022;-72
2023/07/07 03:54:29;;;;;;;17.42;12.82;;;12.80;99.90;;;;;;6101799;23;20025;-71
2023/07/07 03:56:54;;;;;;;17.08;12.32;;;12.80;99.90;;;;;;6124882;23;20025;-71
2023/07/07 03:59:20;;;;;;;14.68;12.23;;;12.90;99.90;;;;;;6128442;23;20046;-71
2023/07/07 04:01:47;;;;;;;14.40;12.65;;;12.90;99.90;;;;;;6125783;23;20022;-71
2023/07/07 04:04:13;;;;;;;17.23;12.55;;;12.90;99.90;;;;;;6127665;23;20030;-71
2023/07/07 04:06:39;;;;;;;15.88;11.68;;;12.90;99.90;;;;;;6126077;23;20018;-71
2023/07/07 04:09:04;;;;;;;16.20;12.10;;;12.90;99.90;;;;;;6100669;23;20029;-71
2023/07/07 04:11:30;;;;;;;15.30;11.93;;;12.90;99.90;;;;;;6127939;23;20045;-71
2023/07/07 04:13:56;;;;;;;14.02;11.27;;;12.90;99.90;;;;;;6124851;23;20113;-71
2023/07/07 04:16:24;;;;;;;17.17;12.35;;;12.90;99.90;;;;;;6126619;23;20046;-71
2023/07/07 04:18:53;;;;;;;16.85;13.40;;;12.90;99.90;;;;;;6125400;23;20073;-71
2023/07/07 04:21:26;;;;;;;16.48;14.23;;;12.90;99.90;;;;;;6125933;23;20049;-72
2023/07/07 04:23:54;;;;;;;18.02;14.27;;;12.90;99.90;;;;;;6126510;23;20025;-72
2023/07/07 04:26:20;;;;;;;21.42;16.35;;;13.00;99.90;;;;;;6125351;23;20020;-72
2023/07/07 04:28:46;;;;;;;21.35;16.52;;;13.10;99.90;;;;;;6126444;23;20017;-72
2023/07/07 04:31:13;;;;;;;18.33;13.55;;;13.20;99.90;;;;;;6100816;23;20081;-72
2023/07/07 04:33:39;;;;;;;17.60;13.15;;;13.20;99.90;;;;;;6126622;23;20052;-72
2023/07/07 04:36:07;;;;;;;15.70;13.20;;;13.30;99.90;;;;;;6125180;23;20045;-72
2023/07/07 04:38:33;;;;;;;22.02;16.08;;;13.40;99.90;;;;;;6125489;23;20066;-72
2023/07/07 04:41:19;;;;;;;21.48;16.67;;;13.40;99.90;;;;;;6125632;23;20045;-71
2023/07/07 04:43:50;;;;;;;23.52;18.38;;;13.50;99.90;;;;;;6126607;23;20018;-72
2023/07/07 04:46:25;;;;;;;23.38;16.30;;;13.50;99.90;;;;;;6127762;23;20070;-73
2023/07/07 04:48:50;;;;;;;20.08;16.08;;;13.60;99.90;;;;;;6125621;23;20022;-72
2023/07/07 04:51:17;;;;;;;22.27;16.75;;;13.70;99.90;;;;;;6126074;23;20017;-72
2023/07/07 04:53:43;;;;;;;21.45;16.85;;;13.80;99.90;;;;;;6101598;23;20037;-71
2023/07/07 04:56:11;;;;;;;20.83;17.45;;;13.90;99.90;;;;;;6100294;23;20359;-72
2023/07/07 04:58:38;;;;;;;21.35;16.92;;;14.00;99.90;;;;;;6125997;23;20085;-72
2023/07/07 05:01:12;;;;;;;22.50;17.70;;;14.00;99.90;;;;;;6126485;23;20029;-71
2023/07/07 05:03:40;;;;;;;20.92;17.63;;;14.10;99.90;;;;;;6127819;23;20029;-72
2023/07/07 05:06:06;;;;;;;23.88;16.75;;;14.10;99.90;;;;;;6100785;23;20022;-72
2023/07/07 05:08:33;;;;;;;26.35;18.05;;;14.10;99.90;;;;;;6076884;23;20050;-72
2023/07/07 05:11:00;;;;;;;24.10;17.83;;;14.20;99.90;;;;;;6100921;23;20057;-72
2023/07/07 05:13:26;;;;;;;21.45;17.98;;;14.30;99.90;;;;;;6100139;23;20030;-71
2023/07/07 05:16:20;;;;;;;27.02;18.33;;;14.30;99.90;;;;;;6125384;23;20022;-70
2023/07/07 05:18:46;;;;;;;22.10;17.35;;;14.40;99.90;;;;;;6100513;23;20062;-71
2023/07/07 05:21:13;;;;;;;24.48;18.20;;;14.50;99.90;;;;;;6127181;23;20577;-71
2023/07/07 05:23:39;;;;;;;19.67;16.67;;;14.60;99.90;;;;;;6125535;23;20026;-71
2023/07/07 05:26:06;;;;;;;25.33;17.40;;;14.60;99.90;;;;;;6100559;23;20022;-71
2023/07/07 05:28:32;;;;;;;24.33;17.70;;;14.70;99.90;;;;;;6127253;23;20040;-71
2023/07/07 05:30:58;;;;;;;24.50;16.52;;;14.80;99.90;;;;;;6128110;23;20024;-71
2023/07/07 05:33:24;;;;;;;20.92;15.88;;;14.90;99.90;;;;;;6127714;23;20022;-71
2023/07/07 05:35:52;;;;;;;21.90;16.42;;;15.00;99.90;;;;;;6127942;23;20021;-71
2023/07/07 05:38:20;;;;;;;18.75;14.77;;;15.10;99.90;;;;;;6103069;23;20451;-71
2023/07/07 05:40:46;;;;;;;19.65;15.73;;;15.20;99.90;;;;;;6105701;23;20026;-71
2023/07/07 05:43:13;;;;;;;22.77;16.15;;;15.30;99.90;;;;;;6080375;23;20124;-71
2023/07/07 05:45:38;;;;;;;20.55;15.23;;;15.40;99.90;;;;;;6128979;23;20049;-70
2023/07/07 05:48:05;;;;;;;19.38;15.25;;;15.50;99.90;;;;;;6101890;23;20036;-71
2023/07/07 05:50:31;;;;;;;21.90;14.65;;;15.70;99.90;;;;;;6102798;23;20356;-71
2023/07/07 05:52:57;;;;;;;19.58;13.80;;;15.80;99.90;;;;;;6102082;23;20052;-72
2023/07/07 05:55:30;;;;;;;15.25;13.05;;;16.00;99.90;;;;;;6055388;23;20034;-71
2023/07/07 05:57:56;;;;;;;17.83;13.43;;;16.10;99.90;;;;;;6102459;23;20124;-71
2023/07/07 06:00:23;;;;;;;15.68;12.52;;;16.20;99.90;;;;;;6101971;23;20089;-72
2023/07/07 06:02:49;;;;;;;15.50;12.32;;;16.40;99.90;;;;;;6102465;23;20079;-71
2023/07/07 06:05:15;;;;;;;16.30;11.82;;;16.50;99.90;;;;;;6101596;23;20018;-71
2023/07/07 06:07:41;;;;;;;14.80;11.57;;;16.70;99.90;;;;;;6102315;23;20021;-71
2023/07/07 06:10:10;;;;;;;17.52;12.40;;;16.80;99.90;;;;;;6127957;23;20025;-71
2023/07/07 06:12:36;;;;;;;14.35;11.25;;;17.00;99.90;;;;;;6078361;23;20026;-71
2023/07/07 06:15:02;;;;;;;15.65;11.00;;;17.20;99.90;;;;;;6078961;23;20117;-71
2023/07/07 06:17:29;;;;;;;12.77;10.70;;;17.30;99.90;;;;;;6101313;23;20028;-71
2023/07/07 06:19:54;;;;;;;15.45;11.80;;;17.50;99.90;;;;;;6102244;23;20022;-71
2023/07/07 06:22:20;;;;;;;15.60;13.13;;;17.60;99.90;;;;;;6077254;23;20026;-71
2023/07/07 06:24:46;;;;;;;13.13;11.63;;;17.80;99.90;;;;;;6102671;23;20025;-71
2023/07/07 06:27:12;;;;;;;14.55;11.73;;;17.90;99.90;;;;;;6101974;23;20060;-71
2023/07/07 06:29:37;;;;;;;17.50;11.73;;;18.00;99.90;;;;;;6102740;23;20032;-71
2023/07/07 06:32:03;;;;;;;16.55;11.60;;;18.20;99.90;;;;;;6127976;23;20307;-71
2023/07/07 06:34:29;;;;;;;15.68;11.23;;;18.30;99.90;;;;;;6100997;23;20014;-71
2023/07/07 06:36:55;;;;;;;11.90;10.55;;;18.40;99.90;;;;;;6078007;23;20351;-71
2023/07/07 06:39:20;;;;;;;14.75;10.55;;;18.50;99.90;;;;;;6077750;23;20028;-71
2023/07/07 06:41:46;;;;;;;14.32;9.98;;;18.70;99.90;;;;;;6128301;23;20057;-71
2023/07/07 06:44:12;;;;;;;14.48;9.98;;;18.80;99.90;;;;;;6077538;23;20085;-71
2023/07/07 06:46:38;;;;;;;11.45;9.75;;;19.00;99.90;;;;;;6128987;23;20053;-71
2023/07/07 06:49:04;;;;;;;11.20;9.63;;;19.10;99.90;;;;;;6123451;23;20021;-71
2023/07/07 06:51:30;;;;;;;12.60;9.63;;;19.20;99.90;;;;;;6072705;23;20018;-71
2023/07/07 06:53:57;;;;;;;12.25;9.52;;;19.30;99.90;;;;;;6073407;23;20339;-71
2023/07/07 06:56:23;;;;;;;10.68;8.52;;;19.40;99.90;;;;;;6095215;23;20026;-71
2023/07/07 06:58:49;;;;;;;10.18;8.02;;;19.50;99.90;;;;;;6093395;23;20551;-71
2023/07/07 07:01:16;;;;;;;9.75;7.45;;;19.60;99.90;;;;;;6068996;23;20026;-71
2023/07/07 07:03:42;;;;;;;16.95;7.65;;;19.70;99.90;;;;;;6120484;23;20022;-71
2023/07/07 07:06:10;;;;;;;10.70;7.15;;;19.90;99.90;;;;;;6119632;23;20017;-71
2023/07/07 07:08:36;;;;;;;8.95;6.93;;;20.00;99.90;;;;;;6093736;23;20018;-71
2023/07/07 07:11:01;;;;;;;8.50;6.93;;;20.00;99.90;;;;;;6094355;23;20082;-71
2023/07/07 07:13:27;;;;;;;9.18;5.93;;;20.20;99.90;;;;;;6069425;23;20026;-71
2023/07/07 07:15:53;;;;;;;8.45;6.30;;;20.30;99.90;;;;;;6069717;23;20068;-71
2023/07/07 07:18:19;;;;;;;6.63;5.68;;;20.40;99.90;;;;;;6092910;23;20364;-71
2023/07/07 07:20:49;;;;;;;9.18;5.75;;;20.50;99.90;;;;;;6092870;23;20022;-71
2023/07/07 07:23:15;;;;;;;11.73;5.97;;;20.60;99.90;;;;;;6119555;23;20026;-81
2023/07/07 07:25:42;;;;;;;8.55;5.15;;;20.70;99.90;;;;;;6045519;23;20100;-71
2023/07/07 07:28:09;;;;;;;9.77;5.72;;;20.70;99.90;;;;;;6120212;23;20036;-71
2023/07/07 07:30:35;;;;;;;7.25;5.20;;;20.90;99.90;;;;;;6092536;23;20022;-71
2023/07/07 07:33:05;;;;;;;8.25;5.05;;;20.90;99.90;;;;;;6093842;23;20021;-72
2023/07/07 07:35:30;;;;;;;7.68;4.90;;;21.10;99.90;;;;;;6118650;23;20021;-72
2023/07/07 07:37:56;;;;;;;7.72;4.53;;;21.20;99.90;;;;;;6045913;23;20034;-71
2023/07/07 07:40:23;;;;;;;8.80;4.32;;;21.30;99.90;;;;;;6120009;23;20065;-72
2023/07/07 07:42:52;;;;;;;5.82;4.15;;;21.40;99.90;;;;;;6069917;23;20033;-72
2023/07/07 07:45:21;;;;;;;6.55;4.22;;;21.50;99.90;;;;;;6120618;23;20026;-71
2023/07/07 07:47:47;;;;;;;8.50;4.30;;;21.60;99.90;;;;;;6118188;23;20069;-71
2023/07/07 07:50:15;;;;;;;5.50;4.00;;;21.60;99.90;;;;;;6093436;23;20033;-72
2023/07/07 07:52:41;;;;;;;5.85;4.10;;;21.70;99.90;;;;;;6118976;23;20036;-71
2023/07/07 07:55:07;;;;;;;5.97;3.80;;;21.80;99.90;;;;;;6070582;23;20021;-72
2023/07/07 07:57:33;;;;;;;6.72;3.88;;;21.80;99.90;;;;;;6093243;23;20077;-71
2023/07/07 07:59:59;;;;;;;3.85;3.47;;;21.90;99.90;;;;;;6119759;23;20025;-71
2023/07/07 08:02:25;;;;;;;10.00;4.00;;;22.00;99.90;;;;;;6093439;23;20452;-72
2023/07/07 08:04:50;;;;;;;6.88;3.78;;;22.10;99.90;;;;;;6092716;23;20372;-72
2023/07/07 08:07:16;;;;;;;6.05;3.40;;;22.20;99.90;;;;;;6069141;23;20014;-72
2023/07/07 08:09:42;;;;;;;4.65;3.35;;;22.30;99.90;;;;;;6069093;23;20041;-72
2023/07/07 08:12:09;;;;;;;8.43;3.53;;;22.40;99.90;;;;;;6119761;23;20025;-80
2023/07/07 08:14:36;;;;;;;6.15;3.85;;;22.40;99.90;;;;;;6069289;23;20400;-72
2023/07/07 08:17:05;;;;;;;6.15;3.85;;;22.40;99.90;;;;;;6092803;23;20034;-71
2023/07/07 08:19:34;;;;;;;5.03;3.53;;;22.50;99.90;;;;;;6070225;23;20084;-72
2023/07/07 08:22:01;;;;;;;5.55;3.53;;;22.60;99.90;;;;;;6068496;23;20026;-71
2023/07/07 08:24:27;;;;;;;5.05;3.55;;;22.60;99.90;;;;;;6069961;23;20349;-71
2023/07/07 08:26:53;;;;;;;6.95;3.60;;;22.70;99.90;;;;;;6068168;23;20026;-72
2023/07/07 08:29:19;;;;;;;5.50;3.35;;;22.80;99.90;;;;;;6093829;23;20028;-72
2023/07/07 08:31:45;;;;;;;6.28;3.92;;;22.80;99.90;;;;;;6068945;23;20042;-71
2023/07/07 08:34:11;;;;;;;5.13;3.90;;;22.90;99.90;;;;;;6092833;23;20030;-71
2023/07/07 08:36:36;;;;;;;4.70;3.25;;;23.00;99.90;;;;;;6118728;23;20026;-72
2023/07/07 08:39:19;;;;;;;4.53;3.08;;;23.10;99.90;;;;;;6068179;23;20022;-72
2023/07/07 08:41:49;;;;;;;5.57;3.38;;;23.20;99.90;;;;;;6094705;23;20026;-72
2023/07/07 08:44:17;;;;;;;5.70;3.22;;;23.40;99.90;;;;;;6095220;23;20586;-73
2023/07/07 08:46:58;;;;;;;5.05;3.03;;;23.50;99.90;;;;;;6118992;23;20025;-72
2023/07/07 08:49:35;;;;;;;3.78;2.75;;;23.60;99.90;;;;;;6118898;23;20049;-71
2023/07/07 08:52:04;;;;;;;5.38;3.08;;;23.60;99.90;;;;;;6118177;23;20018;-72
2023/07/07 08:54:44;;;;;;;3.65;3.15;;;23.80;99.90;;;;;;6119255;23;20014;-72
2023/07/07 08:57:14;;;;;;;4.93;3.28;;;23.80;99.90;;;;;;6091957;23;20069;-72
2023/07/07 08:59:52;;;;;;;4.43;2.75;;;23.80;99.90;;;;;;6073528;23;20025;-72
2023/07/07 09:03:05;;;;;;;3.65;2.70;;;23.80;89.40;;;;;;6128816;23;20025;-78
2023/07/07 09:06:01;;;;;;;3.55;2.80;;;23.80;97.60;;;;;;5958106;24;20044;-71
2023/07/07 09:08:50;;;;;;;3.40;3.10;;;24.00;95.00;;;;;;5982313;24;20054;-71
2023/07/07 09:11:29;;;;;;;4.32;3.00;;;24.00;97.50;;;;;;6112783;23;20022;-72
2023/07/07 09:13:58;;;;;;;3.70;2.50;;;24.10;82.00;;;;;;6101847;23;20025;-72
2023/07/07 09:16:34;;;;;;;6.00;2.75;;;24.20;97.90;;;;;;6103435;23;20085;-72
2023/07/07 09:19:10;;;;;;;3.30;2.90;;;24.20;92.50;;;;;;6128677;23;20018;-72
2023/07/07 09:21:53;;;;;;;3.25;2.40;;;24.40;90.00;;;;;;6102453;23;20018;-72
2023/07/07 09:24:29;;;;;;;3.25;2.67;;;24.50;79.40;;;;;;6129294;23;20090;-72
2023/07/07 09:27:00;;;;;;;4.75;2.90;;;24.50;83.10;;;;;;6101720;23;20033;-72
2023/07/07 09:29:29;;;;;;;3.97;2.80;;;24.70;80.00;;;;;;6129806;23;20017;-72
2023/07/07 09:31:55;;;;;;;4.72;2.72;;;24.80;79.00;;;;;;6078721;23;20437;-72
2023/07/07 09:34:23;;;;;;;5.57;2.75;;;24.80;73.80;;;;;;6102642;23;20045;-72
2023/07/07 09:37:21;;;;;;;3.03;2.70;;;24.80;71.70;;;;;;6102423;23;20026;-72
2023/07/07 09:39:59;;;;;;;4.57;2.78;;;24.80;78.30;;;;;;6126320;23;20070;-72
2023/07/07 09:42:36;;;;;;;4.53;2.90;;;24.80;71.80;;;;;;6129155;23;20511;-72
2023/07/07 09:45:43;;;;;;;7.47;2.60;;;24.80;69.40;;;;;;6127291;23;20029;-72
2023/07/07 09:48:53;;;;;;;3.55;2.40;;;24.80;70.90;;;;;;6126137;23;20021;-72
2023/07/07 09:51:41;;;;;;;4.38;2.72;;;24.90;69.60;;;;;;6128240;23;20023;-72
2023/07/07 09:54:11;;;;;;;5.13;2.80;;;24.90;69.20;;;;;;6126819;23;20097;-72
2023/07/07 09:56:58;;;;;;;6.15;2.90;;;25.00;71.10;;;;;;6128179;23;20025;-72
2023/07/07 09:59:35;;;;;;;2.95;2.33;;;25.20;70.00;;;;;;6129533;23;20022;-72
2023/07/07 10:02:08;;;;;;;6.72;3.38;;;25.40;72.80;;;;;;6129166;23;20039;-72
2023/07/07 10:04:34;;;;;;;4.82;2.78;;;25.30;70.90;;;;;;6126414;23;20085;-71
2023/07/07 10:07:04;;;;;;;5.38;2.63;;;25.40;70.80;;;;;;6128124;23;20017;-72
2023/07/07 10:09:31;;;;;;;4.65;2.65;;;25.50;70.30;;;;;;6126228;23;20025;-72
2023/07/07 10:11:58;;;;;;;3.72;2.47;;;25.50;68.90;;;;;;6127490;23;20021;-72
2023/07/07 10:14:27;;;;;;;3.55;2.90;;;25.50;68.20;;;;;;6127571;23;20028;-72
2023/07/07 10:17:13;;;;;;;5.68;2.88;;;25.50;67.00;;;;;;6128245;23;20097;-72
2023/07/07 10:19:55;;;;;;;3.92;2.45;;;25.50;67.10;;;;;;6126366;23;20022;-72
2023/07/07 10:22:21;;;;;;;;;;;25.50;67.30;;;;;;6128427;23;20099;-72
2023/07/07 10:24:47;;;;;;;3.78;2.70;;;25.50;66.70;;;;;;6128937;23;19921;-73
2023/07/07 10:27:20;;;;;;;3.22;2.38;;;25.50;66.60;;;;;;6126190;23;20052;-72
2023/07/07 10:29:46;;;;;;;3.72;2.72;;;25.50;66.00;;;;;;6127996;23;20454;-71
2023/07/07 10:32:21;;;;;;;4.00;2.60;;;25.50;66.10;;;;;;6127065;23;20108;-71
2023/07/07 10:34:51;;;;;;;3.50;2.80;;;25.60;65.40;;;;;;6125362;23;20032;-71
2023/07/07 10:37:18;;;;;;;4.53;2.67;;;25.70;65.10;;;;;;6102498;23;20426;-71
2023/07/07 10:39:58;;;;;;;4.80;2.67;;;25.70;64.90;;;;;;6076896;23;20093;-71
2023/07/07 10:42:26;;;;;;;3.75;2.50;;;25.80;64.40;;;;;;6101875;23;20018;-71
2023/07/07 10:44:54;;;;;;;3.75;2.50;;;25.90;65.30;;;;;;6102060;23;20419;-71
2023/07/07 10:47:24;;;;;;;4.10;2.70;;;25.90;63.80;;;;;;6127135;23;20018;-71
2023/07/07 10:49:50;;;;;;;4.10;2.55;;;26.00;65.30;;;;;;6102149;23;20014;-71
2023/07/07 10:52:40;;;;;;;4.68;2.75;;;26.10;64.90;;;;;;6127733;23;20022;-71
2023/07/07 10:55:14;;;;;;;4.47;2.90;;;26.10;63.20;;;;;;6082162;23;20073;-71
2023/07/07 10:57:46;;;;;;;2.72;2.42;;;26.10;62.80;;;;;;6127994;23;20021;-71
2023/07/07 11:00:23;;;;;;;7.07;2.90;;;26.00;61.40;;;;;;6127690;23;20057;-72
2023/07/07 11:03:28;;;;;;;3.47;3.10;;;26.10;62.10;;;;;;6128436;23;20058;-71
2023/07/07 11:06:07;;;;;;;3.92;2.53;;;26.00;62.50;;;;;;5981454;23;20032;-71
2023/07/07 11:08:48;;;;;;;3.80;2.45;;;26.10;62.50;;;;;;5935001;24;20032;-71
2023/07/07 11:11:21;;;;;;;4.30;2.85;;;26.10;62.40;;;;;;6079038;23;20031;-71
2023/07/07 11:13:46;;;;;;;4.63;3.05;;;26.10;62.50;;;;;;6077320;23;20112;-71
2023/07/07 11:16:39;;;;;;;3.95;2.85;;;26.00;62.50;;;;;;6129177;23;20558;-71
2023/07/07 11:19:18;;;;;;;3.40;2.58;;;26.10;63.90;;;;;;6127985;23;20028;-71
2023/07/07 11:22:24;;;;;;;2.95;2.60;;;26.20;64.60;;;;;;6127732;23;20022;-71
2023/07/07 11:24:54;;;;;;;4.18;2.80;;;26.30;60.30;;;;;;6082010;23;20022;-72
2023/07/07 11:27:25;;;;;;;3.95;2.72;;;26.20;60.40;;;;;;6101352;23;20017;-71
2023/07/07 11:29:54;;;;;;;4.05;2.70;;;26.20;60.80;;;;;;6127756;23;20025;-72
2023/07/07 11:32:46;;;;;;;2.88;2.55;;;26.40;63.00;;;;;;6128048;23;20029;-72
2023/07/07 11:35:24;;;;;;;4.57;2.92;;;26.60;59.90;;;;;;6127223;23;20447;-72
2023/07/07 11:38:02;;;;;;;3.33;2.58;;;26.70;59.00;;;;;;6078151;23;20026;-72
2023/07/07 11:41:05;;;;;;;4.57;2.60;;;26.70;59.50;;;;;;6077779;23;20026;-72
2023/07/07 11:43:53;;;;;;;5.72;2.97;;;26.70;60.40;;;;;;6100765;23;20052;-71
2023/07/07 11:46:34;;;;;;;3.53;2.38;;;26.80;59.90;;;;;;6128091;23;20029;-71
2023/07/07 11:49:20;;;;;;;4.45;2.97;;;26.80;59.90;;;;;;6101586;23;20025;-71
2023/07/07 11:52:24;;;;;;;3.03;2.72;;;26.90;59.80;;;;;;6099969;23;20029;-71
2023/07/07 11:55:08;;;;;;;2.60;2.30;;;26.90;57.50;;;;;;6128255;23;20041;-71
2023/07/07 11:58:00;;;;;;;4.05;2.58;;;26.90;57.80;;;;;;6101455;23;20037;-69
2023/07/07 12:00:56;;;;;;;3.13;2.38;;;27.00;58.00;;;;;;6107603;23;20085;-69
2023/07/07 12:03:25;;;;;;;4.63;2.55;;;27.00;55.20;;;;;;6101694;23;20513;-68
2023/07/07 12:05:53;;;;;;;4.68;2.58;;;27.00;56.40;;;;;;6100856;23;20026;-68
2023/07/07 12:08:22;;;;;;;3.58;2.38;;;27.10;57.50;;;;;;6127759;23;20022;-69
2023/07/07 12:10:55;;;;;;;3.25;2.65;;;27.00;54.70;;;;;;6101692;23;20069;-69
2023/07/07 12:13:28;;;;;;;3.13;2.30;;;27.00;54.20;;;;;;6076701;23;20095;-68
2023/07/07 12:16:23;;;;;;;3.20;2.63;;;27.10;54.30;;;;;;6101426;23;20014;-69
2023/07/07 12:18:57;;;;;;;4.93;2.60;;;27.20;53.80;;;;;;6075871;23;20272;-69
2023/07/07 12:21:33;;;;;;;2.97;2.67;;;27.20;54.30;;;;;;6127661;23;20345;-69
2023/07/07 12:24:17;;;;;;;5.53;3.00;;;27.30;55.30;;;;;;6101601;23;20026;-69
2023/07/07 12:27:09;;;;;;;4.70;2.90;;;27.40;54.40;;;;;;6101831;23;20030;-69
2023/07/07 12:29:41;;;;;;;4.45;2.50;;;27.30;53.20;;;;;;6101560;23;20026;-68
2023/07/07 12:32:08;;;;;;;5.28;2.72;;;27.30;53.60;;;;;;6101311;23;20026;-69
2023/07/07 12:34:36;;;;;;;3.15;2.63;;;27.40;53.50;;;;;;6052634;23;20093;-68
2023/07/07 12:37:06;;;;;;;3.25;2.53;;;27.50;52.30;;;;;;6129375;23;20018;-69
2023/07/07 12:39:34;;;;;;;6.15;2.60;;;27.50;51.50;;;;;;6128347;23;20030;-68
2023/07/07 12:42:00;;;;;;;2.45;2.20;;;27.50;52.20;;;;;;6079758;23;20018;-69
2023/07/07 12:44:26;;;;;;;4.82;2.83;;;27.60;52.80;;;;;;6128900;23;20432;-69
2023/07/07 12:46:51;;;;;;;3.75;2.60;;;27.60;53.30;;;;;;6128934;23;20024;-69
2023/07/07 12:49:22;;;;;;;2.97;2.30;;;27.50;52.10;;;;;;6129299;23;20513;-69
2023/07/07 12:51:54;;;;;;;3.00;2.60;;;27.50;51.90;;;;;;6102794;23;20018;-69
2023/07/07 12:54:34;;;;;;;4.53;3.05;;;27.40;53.20;;;;;;6103783;23;20089;-69
2023/07/07 12:57:18;;;;;;;3.20;2.83;;;27.50;53.40;;;;;;6102564;23;20077;-69
2023/07/07 12:59:44;;;;;;;4.05;2.67;;;27.50;52.80;;;;;;6129354;23;20025;-68